Time;durP1;ratioP1;P1;durP2;ratioP2;P2;SDS_P1;SDS_P2;PMS_P1;PMS_P2;Temp;Humidity;BMP_temperature;BMP_pressure;BME280_temperature;BME280_humidity;BME280_pressure;Samples;Min_cycle;Max_cycle;Signal;HPM_P1;HPM_P2
2022/11/30 00:02:22;;;;;;;85.63;27.97;;;;;;;;;;5070340;28;20427;-43
2022/11/30 00:04:48;;;;;;;154.47;27.07;;;;;;;;;;5070772;28;20463;-42
2022/11/30 00:07:14;;;;;;;174.20;28.97;;;;;;;;;;5068764;28;20411;-42
2022/11/30 00:09:40;;;;;;;174.87;29.47;;;;;;;;;;5075036;28;20495;-43
2022/11/30 00:12:06;;;;;;;84.73;26.90;;;;;;;;;;5074468;28;20443;-42
2022/11/30 00:14:32;;;;;;;93.77;24.23;;;;;;;;;;5074044;28;20453;-42
2022/11/30 00:16:58;;;;;;;88.67;26.83;;;;;;;;;;5067672;28;20821;-43
2022/11/30 00:19:24;;;;;;;113.10;27.40;;;;;;;;;;5072958;28;20416;-43
2022/11/30 00:21:50;;;;;;;70.33;24.20;;;;;;;;;;5074629;28;20967;-42
2022/11/30 00:24:16;;;;;;;62.27;23.67;;;;;;;;;;5069524;28;20489;-42
2022/11/30 00:26:42;;;;;;;91.03;25.40;;;;;;;;;;5074276;28;20411;-42
2022/11/30 00:29:08;;;;;;;79.53;24.47;;;;;;;;;;5068450;28;20419;-42
2022/11/30 00:31:34;;;;;;;102.30;28.00;;;;;;;;;;5071340;28;20451;-42
2022/11/30 00:34:00;;;;;;;81.47;24.60;;;;;;;;;;5072815;28;20928;-43
2022/11/30 00:36:26;;;;;;;124.37;27.43;;;;;;;;;;5072882;28;20782;-43
2022/11/30 00:38:52;;;;;;;78.13;23.47;;;;;;;;;;5070549;28;20423;-42
2022/11/30 00:41:19;;;;;;;104.07;26.00;;;;;;;;;;5074002;28;20440;-43
2022/11/30 00:43:45;;;;;;;195.37;28.30;;;;;;;;;;5067046;28;20518;-42
2022/11/30 00:46:11;;;;;;;110.00;25.73;;;;;;;;;;5073623;28;20406;-42
2022/11/30 00:48:37;;;;;;;115.00;26.57;;;;;;;;;;5074340;28;20414;-42
2022/11/30 00:51:04;;;;;;;78.33;26.60;;;;;;;;;;5072402;28;20919;-42
2022/11/30 00:53:29;;;;;;;58.50;23.10;;;;;;;;;;5072085;28;20403;-42
2022/11/30 00:55:55;;;;;;;73.50;24.27;;;;;;;;;;5074126;28;20923;-42
2022/11/30 00:58:21;;;;;;;75.10;24.30;;;;;;;;;;5066954;28;20840;-42
2022/11/30 01:00:47;;;;;;;203.50;27.37;;;;;;;;;;5073157;28;20406;-44
2022/11/30 01:03:14;;;;;;;61.80;23.73;;;;;;;;;;5073954;28;20525;-43
2022/11/30 01:05:40;;;;;;;154.93;25.93;;;;;;;;;;5070111;28;20420;-42
2022/11/30 01:08:06;;;;;;;79.67;27.70;;;;;;;;;;5074020;28;20404;-44
2022/11/30 01:10:33;;;;;;;98.33;27.63;;;;;;;;;;5073223;28;20424;-42
2022/11/30 01:13:00;;;;;;;92.73;25.10;;;;;;;;;;5067568;28;20427;-42
2022/11/30 01:15:26;;;;;;;68.47;24.13;;;;;;;;;;5073736;28;20885;-42
2022/11/30 01:17:52;;;;;;;81.60;27.50;;;;;;;;;;5071771;28;20469;-42
2022/11/30 01:20:18;;;;;;;80.13;27.00;;;;;;;;;;5072750;28;20411;-42
2022/11/30 01:22:44;;;;;;;77.47;25.10;;;;;;;;;;5067908;28;20434;-43
2022/11/30 01:25:10;;;;;;;194.33;25.93;;;;;;;;;;5073615;28;20418;-43
2022/11/30 01:27:36;;;;;;;222.17;26.13;;;;;;;;;;5073526;28;20409;-42
2022/11/30 01:30:02;;;;;;;172.07;26.70;;;;;;;;;;5073510;28;20404;-42
2022/11/30 01:32:28;;;;;;;83.27;23.93;;;;;;;;;;5071011;28;20485;-42
2022/11/30 01:34:54;;;;;;;133.50;25.30;;;;;;;;;;5073553;28;20468;-43
2022/11/30 01:37:20;;;;;;;67.83;22.40;;;;;;;;;;5068120;28;20402;-43
2022/11/30 01:39:46;;;;;;;90.77;24.23;;;;;;;;;;5058087;28;20415;-44
2022/11/30 01:42:16;;;;;;;95.23;22.70;;;;;;;;;;5072626;28;20961;-42
2022/11/30 01:44:50;;;;;;;74.23;23.43;;;;;;;;;;5073361;28;20471;-42
2022/11/30 01:47:17;;;;;;;98.00;22.20;;;;;;;;;;5070202;28;20412;-42
2022/11/30 01:49:46;;;;;;;56.40;23.73;;;;;;;;;;5072944;28;20407;-43
2022/11/30 01:52:18;;;;;;;54.17;22.23;;;;;;;;;;5072878;28;20426;-41
2022/11/30 01:54:47;;;;;;;67.73;23.43;;;;;;;;;;5066098;28;20416;-42
2022/11/30 01:57:46;;;;;;;51.07;21.20;;;;;;;;;;5072580;28;20503;-43
2022/11/30 02:00:13;;;;;;;60.03;21.27;;;;;;;;;;5053961;28;20484;-42
2022/11/30 02:02:42;;;;;;;58.93;21.30;;;;;;;;;;5068047;28;20477;-42
2022/11/30 02:05:09;;;;;;;80.97;21.20;;;;;;;;;;5072376;28;20417;-42
2022/11/30 02:07:35;;;;;;;58.60;20.70;;;;;;;;;;5065664;28;20415;-42
2022/11/30 02:10:01;;;;;;;49.87;19.97;;;;;;;;;;5072293;28;20414;-42
2022/11/30 02:12:44;;;;;;;64.70;19.67;;;;;;;;;;5070365;28;20443;-42
2022/11/30 02:15:17;;;;;;;41.03;17.90;;;;;;;;;;5072607;28;20438;-42
2022/11/30 02:18:02;;;;;;;43.63;19.67;;;;;;;;;;5072405;28;20389;-44
2022/11/30 02:20:30;;;;;;;40.70;18.30;;;;;;;;;;5070134;28;20403;-42
2022/11/30 02:23:02;;;;;;;48.13;18.90;;;;;;;;;;5066029;28;20567;-42
2022/11/30 02:25:47;;;;;;;52.83;17.03;;;;;;;;;;5072427;28;20407;-42
2022/11/30 02:28:31;;;;;;;44.87;18.60;;;;;;;;;;5072526;28;20751;-42
2022/11/30 02:30:59;;;;;;;36.63;18.20;;;;;;;;;;5067554;28;20483;-42
2022/11/30 02:33:27;;;;;;;91.30;19.20;;;;;;;;;;5067080;28;20435;-42
2022/11/30 02:35:56;;;;;;;79.03;18.63;;;;;;;;;;5065475;28;20406;-42
2022/11/30 02:38:23;;;;;;;43.53;18.20;;;;;;;;;;5071921;28;20919;-42
2022/11/30 02:40:49;;;;;;;45.37;19.20;;;;;;;;;;5070010;28;20403;-42
2022/11/30 02:43:15;;;;;;;36.90;16.67;;;;;;;;;;5072192;28;20462;-42
2022/11/30 02:45:47;;;;;;;34.13;16.17;;;;;;;;;;5072305;28;20415;-43
2022/11/30 02:48:17;;;;;;;39.63;17.93;;;;;;;;;;5067755;28;20925;-42
2022/11/30 02:50:48;;;;;;;36.13;16.40;;;;;;;;;;5065045;28;21114;-43
2022/11/30 02:53:14;;;;;;;46.40;17.77;;;;;;;;;;5071585;28;20430;-42
2022/11/30 02:55:40;;;;;;;35.73;16.40;;;;;;;;;;5071951;28;20924;-42
2022/11/30 02:58:06;;;;;;;40.03;17.40;;;;;;;;;;5068535;28;20561;-43
2022/11/30 03:00:32;;;;;;;52.93;23.00;;;;;;;;;;5071788;28;20930;-42
2022/11/30 03:02:58;;;;;;;44.37;21.47;;;;;;;;;;5071647;28;20843;-42
2022/11/30 03:05:24;;;;;;;64.50;21.70;;;;;;;;;;5071764;28;20401;-42
2022/11/30 03:07:50;;;;;;;75.40;21.57;;;;;;;;;;5071683;28;20434;-43
2022/11/30 03:10:16;;;;;;;53.90;22.00;;;;;;;;;;5071694;28;20435;-42
2022/11/30 03:12:42;;;;;;;77.77;23.20;;;;;;;;;;5068288;28;20457;-42
2022/11/30 03:15:08;;;;;;;47.27;21.53;;;;;;;;;;5066794;28;20781;-42
2022/11/30 03:17:34;;;;;;;60.50;22.83;;;;;;;;;;5081368;28;20478;-42
2022/11/30 03:20:00;;;;;;;68.27;21.40;;;;;;;;;;5071664;28;20900;-42
2022/11/30 03:22:26;;;;;;;68.40;21.80;;;;;;;;;;5071047;28;20418;-42
2022/11/30 03:24:52;;;;;;;49.97;22.30;;;;;;;;;;5071570;28;20962;-42
2022/11/30 03:27:18;;;;;;;75.00;21.80;;;;;;;;;;5066884;28;20919;-42
2022/11/30 03:29:44;;;;;;;61.93;23.10;;;;;;;;;;5071555;28;20409;-42
2022/11/30 03:32:10;;;;;;;56.57;22.13;;;;;;;;;;5071113;28;20427;-42
2022/11/30 03:34:36;;;;;;;69.63;24.23;;;;;;;;;;5071536;28;20451;-42
2022/11/30 03:37:02;;;;;;;71.13;22.67;;;;;;;;;;5071390;28;20412;-42
2022/11/30 03:39:28;;;;;;;65.30;22.83;;;;;;;;;;5071371;28;20413;-42
2022/11/30 03:41:54;;;;;;;138.53;24.30;;;;;;;;;;5069801;28;20429;-42
2022/11/30 03:44:20;;;;;;;46.57;20.83;;;;;;;;;;5071370;28;20462;-42
2022/11/30 03:46:46;;;;;;;62.47;22.20;;;;;;;;;;5074066;28;20931;-42
2022/11/30 03:49:12;;;;;;;101.00;24.47;;;;;;;;;;5067249;28;20416;-42
2022/11/30 03:51:38;;;;;;;64.40;24.90;;;;;;;;;;5073381;28;20934;-42
2022/11/30 03:54:04;;;;;;;49.60;22.10;;;;;;;;;;5075464;28;20437;-42
2022/11/30 03:56:30;;;;;;;46.63;20.87;;;;;;;;;;5070449;28;20494;-42
2022/11/30 03:58:56;;;;;;;52.33;22.43;;;;;;;;;;5075383;28;20416;-42
2022/11/30 04:01:23;;;;;;;50.80;23.60;;;;;;;;;;5074673;28;20426;-42
2022/11/30 04:03:49;;;;;;;64.53;25.07;;;;;;;;;;5067355;28;21016;-42
2022/11/30 04:06:16;;;;;;;51.10;23.97;;;;;;;;;;5073570;28;20456;-42
2022/11/30 04:08:42;;;;;;;58.83;23.60;;;;;;;;;;5075050;28;20490;-43
2022/11/30 04:11:08;;;;;;;68.60;23.53;;;;;;;;;;5074649;28;20508;-43
2022/11/30 04:13:35;;;;;;;65.53;24.60;;;;;;;;;;5075061;28;20415;-42
2022/11/30 04:16:01;;;;;;;60.33;26.67;;;;;;;;;;5075009;28;20405;-42
2022/11/30 04:18:28;;;;;;;52.00;23.90;;;;;;;;;;5075097;28;20815;-42
2022/11/30 04:20:55;;;;;;;56.67;26.23;;;;;;;;;;5074609;28;20410;-42
2022/11/30 04:23:21;;;;;;;50.50;23.30;;;;;;;;;;5071431;28;20465;-42
2022/11/30 04:25:47;;;;;;;52.07;24.13;;;;;;;;;;5074849;28;20966;-42
2022/11/30 04:28:14;;;;;;;51.70;23.67;;;;;;;;;;5068251;28;20414;-42
2022/11/30 04:30:40;;;;;;;53.10;21.80;;;;;;;;;;5074798;28;20417;-42
2022/11/30 04:33:07;;;;;;;48.53;24.27;;;;;;;;;;5074384;28;20421;-42
2022/11/30 04:35:33;;;;;;;52.23;22.20;;;;;;;;;;5071373;28;20486;-44
2022/11/30 04:37:59;;;;;;;57.23;24.40;;;;;;;;;;5076272;28;20410;-44
2022/11/30 04:40:25;;;;;;;52.07;23.40;;;;;;;;;;5075909;28;20394;-44
2022/11/30 04:42:51;;;;;;;48.80;22.50;;;;;;;;;;5069398;28;20432;-44
2022/11/30 04:45:17;;;;;;;46.37;21.27;;;;;;;;;;5075798;28;20485;-43
2022/11/30 04:47:43;;;;;;;58.83;26.00;;;;;;;;;;5075947;28;20401;-43
2022/11/30 04:50:09;;;;;;;44.40;22.10;;;;;;;;;;5072730;28;20448;-44
2022/11/30 04:52:36;;;;;;;49.77;23.53;;;;;;;;;;5075630;28;20440;-44
2022/11/30 04:55:05;;;;;;;49.40;23.97;;;;;;;;;;5072121;28;20402;-45
2022/11/30 04:57:30;;;;;;;48.80;23.30;;;;;;;;;;5073340;28;20497;-45
2022/11/30 04:59:56;;;;;;;43.30;20.57;;;;;;;;;;5075698;28;20862;-44
2022/11/30 05:02:24;;;;;;;50.83;24.30;;;;;;;;;;5075023;28;20428;-44
2022/11/30 05:04:50;;;;;;;47.25;25.02;;;;;;;;;;5072416;28;20470;-44
2022/11/30 05:07:16;;;;;;;48.73;24.40;;;;;;;;;;5075743;28;20174;-45
2022/11/30 05:09:41;;;;;;;50.17;24.20;;;;;;;;;;5068822;28;20418;-44
2022/11/30 05:12:07;;;;;;;47.83;23.00;;;;;;;;;;5068651;28;20445;-44
2022/11/30 05:14:33;;;;;;;49.40;23.07;;;;;;;;;;5072671;28;20540;-44
2022/11/30 05:16:59;;;;;;;43.13;22.87;;;;;;;;;;5074958;28;20400;-43
2022/11/30 05:19:25;;;;;;;50.00;22.27;;;;;;;;;;5074831;28;20496;-44
2022/11/30 05:21:51;;;;;;;41.50;21.70;;;;;;;;;;5070176;28;20429;-43
2022/11/30 05:24:17;;;;;;;39.40;21.87;;;;;;;;;;5074713;28;20972;-44
2022/11/30 05:26:43;;;;;;;41.80;21.97;;;;;;;;;;5066913;28;20780;-45
2022/11/30 05:29:09;;;;;;;41.40;20.60;;;;;;;;;;5074718;28;20401;-43
2022/11/30 05:31:37;;;;;;;37.60;21.80;;;;;;;;;;5071083;28;20489;-45
2022/11/30 05:34:03;;;;;;;42.93;20.60;;;;;;;;;;5074365;28;20489;-43
2022/11/30 05:36:29;;;;;;;40.00;22.17;;;;;;;;;;5074155;28;20464;-44
2022/11/30 05:38:55;;;;;;;46.70;22.67;;;;;;;;;;5067997;28;20429;-43
2022/11/30 05:41:21;;;;;;;39.97;19.73;;;;;;;;;;5073641;28;20421;-43
2022/11/30 05:43:47;;;;;;;39.67;19.70;;;;;;;;;;5073995;28;20557;-43
2022/11/30 05:46:13;;;;;;;39.47;20.33;;;;;;;;;;5071132;28;20406;-43
2022/11/30 05:48:39;;;;;;;35.43;19.60;;;;;;;;;;5074778;28;20414;-44
2022/11/30 05:51:05;;;;;;;42.87;23.03;;;;;;;;;;5070458;28;20407;-45
2022/11/30 05:53:32;;;;;;;40.37;23.47;;;;;;;;;;5072526;28;20414;-45
2022/11/30 05:56:01;;;;;;;39.40;21.70;;;;;;;;;;5074854;28;20409;-44
2022/11/30 05:58:27;;;;;;;42.10;21.17;;;;;;;;;;5074703;28;20414;-42
2022/11/30 06:00:52;;;;;;;35.87;20.67;;;;;;;;;;5071505;28;20836;-44
2022/11/30 06:03:18;;;;;;;39.83;21.43;;;;;;;;;;5074284;28;20469;-45
2022/11/30 06:05:44;;;;;;;44.73;22.17;;;;;;;;;;5068275;28;20419;-44
2022/11/30 06:08:10;;;;;;;43.33;21.10;;;;;;;;;;5074567;28;20405;-45
2022/11/30 06:10:36;;;;;;;36.93;21.27;;;;;;;;;;5074284;28;20485;-44
2022/11/30 06:13:07;;;;;;;42.70;20.57;;;;;;;;;;5074244;28;20446;-44
2022/11/30 06:15:33;;;;;;;44.70;23.53;;;;;;;;;;5074185;28;20516;-45
2022/11/30 06:17:59;;;;;;;40.30;21.33;;;;;;;;;;5070219;28;20922;-44
2022/11/30 06:20:24;;;;;;;43.47;22.37;;;;;;;;;;5074123;28;20418;-44
2022/11/30 06:22:50;;;;;;;43.00;21.80;;;;;;;;;;5074295;28;20435;-44
2022/11/30 06:25:16;;;;;;;37.17;19.57;;;;;;;;;;5074437;28;20462;-43
2022/11/30 06:27:42;;;;;;;35.30;20.33;;;;;;;;;;5071615;28;20445;-44
2022/11/30 06:30:09;;;;;;;45.83;22.63;;;;;;;;;;5073947;28;20412;-45
2022/11/30 06:32:35;;;;;;;43.07;21.00;;;;;;;;;;5073620;28;20425;-44
2022/11/30 06:35:01;;;;;;;43.67;21.90;;;;;;;;;;5067867;28;20425;-45
2022/11/30 06:37:27;;;;;;;38.40;22.20;;;;;;;;;;5073998;28;20906;-46
2022/11/30 06:39:53;;;;;;;43.07;23.00;;;;;;;;;;5074550;28;20407;-44
2022/11/30 06:42:19;;;;;;;36.27;21.37;;;;;;;;;;5070540;28;20875;-43
2022/11/30 06:44:45;;;;;;;42.57;21.50;;;;;;;;;;5073908;28;20470;-44
2022/11/30 06:47:11;;;;;;;41.70;21.33;;;;;;;;;;5068891;28;20432;-44
2022/11/30 06:49:38;;;;;;;37.07;20.50;;;;;;;;;;5072602;28;20463;-44
2022/11/30 06:52:04;;;;;;;33.87;19.07;;;;;;;;;;5073353;28;20783;-44
2022/11/30 06:54:30;;;;;;;37.17;21.60;;;;;;;;;;5073279;28;20421;-45
2022/11/30 06:56:56;;;;;;;41.23;21.53;;;;;;;;;;5070929;28;20410;-45
2022/11/30 06:59:24;;;;;;;34.50;20.00;;;;;;;;;;5069531;28;20492;-44
2022/11/30 07:01:50;;;;;;;37.20;20.67;;;;;;;;;;5072786;28;20519;-44
2022/11/30 07:04:16;;;;;;;37.70;21.50;;;;;;;;;;5065869;28;20840;-44
2022/11/30 07:06:42;;;;;;;42.07;21.67;;;;;;;;;;5070729;28;20407;-43
2022/11/30 07:09:09;;;;;;;35.77;19.80;;;;;;;;;;5072828;28;20463;-44
2022/11/30 07:11:35;;;;;;;44.27;21.97;;;;;;;;;;5072265;28;20441;-43
2022/11/30 07:14:01;;;;;;;36.57;19.93;;;;;;;;;;5066804;28;20424;-43
2022/11/30 07:16:27;;;;;;;36.17;20.57;;;;;;;;;;5066951;28;20413;-44
2022/11/30 07:18:53;;;;;;;39.33;20.77;;;;;;;;;;5064953;28;20906;-43
2022/11/30 07:21:19;;;;;;;36.53;19.23;;;;;;;;;;5072009;28;20413;-43
2022/11/30 07:26:29;;;;;;;38.70;20.63;;;;;;;;;;5068761;28;20407;-44
2022/11/30 07:28:57;;;;;;;41.97;20.40;;;;;;;;;;5072982;28;20409;-43
2022/11/30 07:31:27;;;;;;;41.00;20.17;;;;;;;;;;5071803;28;20424;-44
2022/11/30 07:33:53;;;;;;;34.33;19.70;;;;;;;;;;5064907;28;20417;-44
2022/11/30 07:36:20;;;;;;;36.40;20.00;;;;;;;;;;5071957;28;20761;-44
2022/11/30 07:38:46;;;;;;;41.93;21.97;;;;;;;;;;5069823;28;20418;-44
2022/11/30 07:41:13;;;;;;;37.70;20.73;;;;;;;;;;5071485;28;20787;-45
2022/11/30 07:43:39;;;;;;;34.37;19.40;;;;;;;;;;5066290;28;20453;-44
2022/11/30 07:46:05;;;;;;;37.00;20.03;;;;;;;;;;5072508;28;20448;-44
2022/11/30 07:48:32;;;;;;;40.63;20.60;;;;;;;;;;5072734;28;20404;-44
2022/11/30 07:51:02;;;;;;;41.60;21.00;;;;;;;;;;5072323;28;20399;-44
2022/11/30 07:53:28;;;;;;;42.50;20.20;;;;;;;;;;5069796;28;20434;-44
2022/11/30 07:55:54;;;;;;;38.20;19.77;;;;;;;;;;5068553;28;20438;-45
2022/11/30 07:58:20;;;;;;;38.90;20.40;;;;;;;;;;5072423;28;20897;-44
2022/11/30 08:00:46;;;;;;;39.17;21.00;;;;;;;;;;5056727;28;20940;-43
2022/11/30 08:03:12;;;;;;;41.40;21.87;;;;;;;;;;5071619;28;20519;-43
2022/11/30 08:05:38;;;;;;;41.17;21.90;;;;;;;;;;5072085;28;20786;-43
2022/11/30 08:08:04;;;;;;;38.20;20.67;;;;;;;;;;5070247;28;20404;-44
2022/11/30 08:10:30;;;;;;;39.23;20.03;;;;;;;;;;5069635;28;20559;-44
2022/11/30 08:12:56;;;;;;;41.20;19.87;;;;;;;;;;5066171;28;20950;-42
2022/11/30 08:15:22;;;;;;;38.43;21.23;;;;;;;;;;5071678;28;20402;-43
2022/11/30 08:17:53;;;;;;;42.80;20.43;;;;;;;;;;5071949;28;20816;-45
2022/11/30 08:20:19;;;;;;;46.90;21.83;;;;;;;;;;5070311;28;20933;-44
2022/11/30 08:22:45;;;;;;;42.73;22.00;;;;;;;;;;5072341;28;20455;-44
2022/11/30 08:25:11;;;;;;;52.10;22.60;;;;;;;;;;5068452;28;20470;-44
2022/11/30 08:27:37;;;;;;;49.73;22.63;;;;;;;;;;5070767;28;20406;-45
2022/11/30 08:30:03;;;;;;;43.27;22.77;;;;;;;;;;5074731;28;20435;-43
2022/11/30 08:32:31;;;;;;;40.97;20.90;;;;;;;;;;5075293;28;20430;-44
2022/11/30 08:34:57;;;;;;;42.93;21.57;;;;;;;;;;5075554;28;20404;-44
2022/11/30 08:37:23;;;;;;;47.03;24.20;;;;;;;;;;5071773;28;20934;-44
2022/11/30 08:39:49;;;;;;;44.13;22.10;;;;;;;;;;5075552;28;20413;-44
2022/11/30 08:42:15;;;;;;;42.80;21.50;;;;;;;;;;5068944;28;20948;-44
2022/11/30 08:44:41;;;;;;;44.53;21.50;;;;;;;;;;5074129;28;21040;-44
2022/11/30 08:47:07;;;;;;;46.70;22.73;;;;;;;;;;5075552;28;20749;-43
2022/11/30 08:49:33;;;;;;;40.30;20.27;;;;;;;;;;5075180;28;21047;-43
2022/11/30 08:51:59;;;;;;;40.97;22.40;;;;;;;;;;5071094;28;20434;-43
2022/11/30 08:54:26;;;;;;;45.70;24.50;;;;;;;;;;5075623;28;20502;-45
2022/11/30 08:56:52;;;;;;;39.20;21.17;;;;;;;;;;5075790;28;20824;-43
2022/11/30 08:59:18;;;;;;;40.80;22.47;;;;;;;;;;5075722;28;20417;-44
2022/11/30 09:01:44;;;;;;;44.43;21.63;;;;;;;;;;5073427;28;20827;-45
2022/11/30 09:04:10;;;;;;;42.50;21.83;;;;;;;;;;5074984;28;20459;-44
2022/11/30 09:06:35;;;;;;;59.90;23.77;;;;;;;;;;5075095;28;20402;-43
2022/11/30 09:09:02;;;;;;;54.27;22.77;;;;;;;;;;5069378;28;21052;-43
2022/11/30 09:11:29;;;;;;;38.40;21.60;;;;;;;;;;5074532;28;20549;-45
2022/11/30 09:13:56;;;;;;;42.47;22.70;;;;;;;;;;5075043;28;20430;-44
2022/11/30 09:16:22;;;;;;;44.23;24.27;;;;;;;;;;5076117;28;20414;-44
2022/11/30 09:18:49;;;;;;;47.30;22.50;;;;;;;;;;5072239;28;20929;-44
2022/11/30 09:21:15;;;;;;;33.77;20.37;;;;;;;;;;5075123;28;20409;-45
2022/11/30 09:23:41;;;;;;;46.93;22.50;;;;;;;;;;5075482;28;20462;-43
2022/11/30 09:26:10;;;;;;;45.17;22.93;;;;;;;;;;5075461;28;20781;-44
2022/11/30 09:28:36;;;;;;;46.20;22.33;;;;;;;;;;5074775;28;20434;-44
2022/11/30 09:31:06;;;;;;;40.73;21.43;;;;;;;;;;5072117;28;20409;-43
2022/11/30 09:33:32;;;;;;;42.63;21.77;;;;;;;;;;5073991;28;20467;-44
2022/11/30 09:36:00;;;;;;;41.93;22.87;;;;;;;;;;5068681;28;20411;-44
2022/11/30 09:38:26;;;;;;;45.90;22.73;;;;;;;;;;5074070;28;20421;-44
2022/11/30 09:40:55;;;;;;;45.00;24.30;;;;;;;;;;5072768;28;20877;-45
2022/11/30 09:43:24;;;;;;;41.60;22.10;;;;;;;;;;5071582;28;20485;-43
2022/11/30 09:45:56;;;;;;;47.57;21.77;;;;;;;;;;5073159;28;20763;-44
2022/11/30 09:48:41;;;;;;;48.23;22.57;;;;;;;;;;5071384;28;20453;-43
2022/11/30 09:51:10;;;;;;;44.77;21.57;;;;;;;;;;5069096;28;20780;-44
2022/11/30 09:53:39;;;;;;;52.73;24.30;;;;;;;;;;5074872;28;20420;-43
2022/11/30 09:56:13;;;;;;;48.30;23.10;;;;;;;;;;5074979;28;20426;-45
2022/11/30 09:58:44;;;;;;;46.17;23.17;;;;;;;;;;5072496;28;20483;-43
2022/11/30 10:01:15;;;;;;;46.37;23.27;;;;;;;;;;5064602;28;20461;-43
2022/11/30 10:03:41;;;;;;;39.73;21.87;;;;;;;;;;5073570;28;20470;-44
2022/11/30 10:06:35;;;;;;;39.93;22.57;;;;;;;;;;5073862;28;20501;-44
2022/11/30 10:09:04;;;;;;;44.93;23.20;;;;;;;;;;5072822;28;20432;-43
2022/11/30 10:11:44;;;;;;;42.80;22.83;;;;;;;;;;5069776;28;20499;-44
2022/11/30 10:14:22;;;;;;;48.17;22.83;;;;;;;;;;5053187;28;20407;-44
2022/11/30 10:16:53;;;;;;;47.67;23.00;;;;;;;;;;5053458;28;20482;-43
2022/11/30 10:19:19;;;;;;;43.53;22.63;;;;;;;;;;5053216;28;20398;-45
2022/11/30 10:21:59;;;;;;;48.13;23.97;;;;;;;;;;5052761;28;20427;-45
2022/11/30 10:24:37;;;;;;;43.50;23.10;;;;;;;;;;5053098;28;20466;-44
2022/11/30 10:27:11;;;;;;;42.03;22.60;;;;;;;;;;5065391;28;20449;-44
2022/11/30 10:29:39;;;;;;;35.43;20.50;;;;;;;;;;5072966;28;20417;-43
2022/11/30 10:32:12;;;;;;;39.77;21.53;;;;;;;;;;5072617;28;20434;-45
2022/11/30 10:34:39;;;;;;;45.43;23.00;;;;;;;;;;5071437;28;20945;-44
2022/11/30 10:37:17;;;;;;;40.90;22.07;;;;;;;;;;5072634;28;20421;-44
2022/11/30 10:39:52;;;;;;;37.90;21.73;;;;;;;;;;5070552;28;20415;-45
2022/11/30 10:42:25;;;;;;;45.40;23.13;;;;;;;;;;5068628;28;20458;-44
2022/11/30 10:45:05;;;;;;;46.27;24.03;;;;;;;;;;5066112;28;20453;-45
2022/11/30 10:47:35;;;;;;;42.37;24.40;;;;;;;;;;5072905;28;20404;-44
2022/11/30 10:50:02;;;;;;;41.07;22.10;;;;;;;;;;5066706;28;20405;-44
2022/11/30 10:52:48;;;;;;;47.47;24.90;;;;;;;;;;5072259;28;20442;-44
2022/11/30 10:55:17;;;;;;;49.23;23.40;;;;;;;;;;5070259;28;20414;-43
2022/11/30 10:57:43;;;;;;;44.17;21.23;;;;;;;;;;5069099;28;20776;-45
2022/11/30 11:00:15;;;;;;;38.80;22.37;;;;;;;;;;5071965;28;20411;-44
2022/11/30 11:02:43;;;;;;;37.47;23.50;;;;;;;;;;5065200;28;20433;-43
2022/11/30 11:05:09;;;;;;;44.47;22.43;;;;;;;;;;5072337;28;20523;-43
2022/11/30 11:07:44;;;;;;;42.30;22.00;;;;;;;;;;5072485;28;20756;-44
2022/11/30 11:10:13;;;;;;;48.93;26.43;;;;;;;;;;5070233;28;20505;-43
2022/11/30 11:12:39;;;;;;;39.50;22.30;;;;;;;;;;5071176;28;20438;-44
2022/11/30 11:15:17;;;;;;;37.53;20.10;;;;;;;;;;5066841;28;20407;-44
2022/11/30 11:17:43;;;;;;;36.27;20.70;;;;;;;;;;5071660;28;20414;-44
2022/11/30 11:20:28;;;;;;;33.73;20.80;;;;;;;;;;5071785;28;20438;-45
2022/11/30 11:22:54;;;;;;;37.73;21.53;;;;;;;;;;5066311;28;20434;-43
2022/11/30 11:25:21;;;;;;;42.10;20.73;;;;;;;;;;5068396;28;20426;-43
2022/11/30 11:27:55;;;;;;;35.27;19.30;;;;;;;;;;5054195;28;20519;-43
2022/11/30 11:30:26;;;;;;;34.30;19.63;;;;;;;;;;5051797;28;20415;-42
2022/11/30 11:33:05;;;;;;;35.73;20.00;;;;;;;;;;5063043;28;21014;-44
2022/11/30 11:35:34;;;;;;;34.50;19.73;;;;;;;;;;5072323;28;20415;-44
2022/11/30 11:38:00;;;;;;;31.90;19.10;;;;;;;;;;5072011;28;20839;-43
2022/11/30 11:40:26;;;;;;;31.30;18.70;;;;;;;;;;5072181;28;20934;-43
2022/11/30 11:42:53;;;;;;;32.97;18.30;;;;;;;;;;5054340;28;20509;-44
2022/11/30 11:45:24;;;;;;;29.00;18.37;;;;;;;;;;5066520;28;20466;-43
2022/11/30 11:48:00;;;;;;;31.90;18.90;;;;;;;;;;5071808;28;20787;-43
2022/11/30 11:50:36;;;;;;;34.73;19.63;;;;;;;;;;5071699;28;20437;-43
2022/11/30 11:53:22;;;;;;;29.93;19.20;;;;;;;;;;5071268;28;20499;-44
2022/11/30 11:55:49;;;;;;;30.93;18.60;;;;;;;;;;5063017;28;20409;-43
2022/11/30 11:58:21;;;;;;;29.27;17.57;;;;;;;;;;5058292;28;20411;-44
2022/11/30 12:00:48;;;;;;;34.23;18.17;;;;;;;;;;5060210;28;20412;-43
2022/11/30 12:03:18;;;;;;;38.13;20.63;;;;;;;;;;5066475;28;20426;-46
2022/11/30 12:06:00;;;;;;;38.07;19.87;;;;;;;;;;5076158;28;20447;-44
2022/11/30 12:08:46;;;;;;;33.87;19.87;;;;;;;;;;5073393;28;20409;-43
2022/11/30 12:11:21;;;;;;;31.90;19.87;;;;;;;;;;5070921;28;20423;-44
2022/11/30 12:13:47;;;;;;;35.77;20.13;;;;;;;;;;5074238;28;20496;-45
2022/11/30 12:16:21;;;;;;;36.03;20.50;;;;;;;;;;5067866;28;20449;-44
2022/11/30 12:18:53;;;;;;;32.10;19.50;;;;;;;;;;5074005;28;20501;-44
2022/11/30 12:21:31;;;;;;;34.73;19.20;;;;;;;;;;5072475;28;20414;-44
2022/11/30 12:24:14;;;;;;;32.73;19.70;;;;;;;;;;5069804;28;20469;-44
2022/11/30 12:26:43;;;;;;;37.00;19.30;;;;;;;;;;5075771;28;20407;-43
2022/11/30 12:29:12;;;;;;;32.40;19.27;;;;;;;;;;5069273;28;20408;-44
2022/11/30 12:31:47;;;;;;;31.63;18.20;;;;;;;;;;5073313;28;20438;-44
2022/11/30 12:34:49;;;;;;;32.60;17.80;;;;;;;;;;5076042;28;20879;-44
2022/11/30 12:37:17;;;;;;;37.53;20.53;;;;;;;;;;5045526;28;20415;-44
2022/11/30 12:40:08;;;;;;;35.87;19.43;;;;;;;;;;5069555;28;20422;-45
2022/11/30 12:42:36;;;;;;;41.13;21.43;;;;;;;;;;5073676;28;20425;-44
2022/11/30 12:45:05;;;;;;;38.73;20.23;;;;;;;;;;5075288;28;20459;-45
2022/11/30 12:47:47;;;;;;;35.90;19.77;;;;;;;;;;5075061;28;20823;-43
2022/11/30 12:50:19;;;;;;;33.50;18.80;;;;;;;;;;5071967;28;20410;-44
2022/11/30 12:52:45;;;;;;;38.90;19.33;;;;;;;;;;5074601;28;20445;-44
2022/11/30 12:55:20;;;;;;;35.00;19.40;;;;;;;;;;5068923;28;20405;-44
2022/11/30 12:57:52;;;;;;;43.70;20.40;;;;;;;;;;5075315;28;20454;-43
2022/11/30 13:00:22;;;;;;;33.40;20.30;;;;;;;;;;5075068;28;20420;-44
2022/11/30 13:03:11;;;;;;;33.60;19.43;;;;;;;;;;5063538;28;20437;-43
2022/11/30 13:05:47;;;;;;;38.10;20.90;;;;;;;;;;5074752;28;20431;-44
2022/11/30 13:08:32;;;;;;;35.50;19.60;;;;;;;;;;5070503;28;21095;-44
2022/11/30 13:11:02;;;;;;;34.73;20.27;;;;;;;;;;5078878;28;20480;-44
2022/11/30 13:13:31;;;;;;;37.30;19.20;;;;;;;;;;5077234;28;20453;-43
2022/11/30 13:15:57;;;;;;;33.50;17.33;;;;;;;;;;5078906;28;20403;-43
2022/11/30 13:18:23;;;;;;;33.83;17.10;;;;;;;;;;5084121;28;20463;-42
2022/11/30 13:20:55;;;;;;;37.37;18.00;;;;;;;;;;5086774;28;20410;-45
2022/11/30 13:23:30;;;;;;;31.03;17.80;;;;;;;;;;5072166;28;20470;-42
2022/11/30 13:26:01;;;;;;;30.90;19.03;;;;;;;;;;5072271;28;20505;-44
2022/11/30 13:28:30;;;;;;;28.23;17.47;;;;;;;;;;5073616;28;20942;-44
2022/11/30 13:31:15;;;;;;;35.20;18.50;;;;;;;;;;5074619;28;20551;-43
2022/11/30 13:33:44;;;;;;;33.50;19.13;;;;;;;;;;5070461;28;20482;-44
2022/11/30 13:36:33;;;;;;;43.33;18.73;;;;;;;;;;5070515;28;20563;-44
2022/11/30 13:39:15;;;;;;;33.10;18.30;;;;;;;;;;5057247;28;20418;-45
2022/11/30 13:41:48;;;;;;;35.63;19.77;;;;;;;;;;5072693;28;20883;-43
2022/11/30 13:44:33;;;;;;;34.83;17.50;;;;;;;;;;5073667;28;20959;-44
2022/11/30 13:47:00;;;;;;;35.03;17.80;;;;;;;;;;5073910;28;21139;-45
2022/11/30 13:49:36;;;;;;;36.33;18.30;;;;;;;;;;5074768;28;20405;-44
2022/11/30 13:52:11;;;;;;;37.93;20.20;;;;;;;;;;5068210;28;20792;-42
2022/11/30 13:54:45;;;;;;;32.70;18.33;;;;;;;;;;5066176;28;20449;-45
2022/11/30 13:57:26;;;;;;;33.30;17.17;;;;;;;;;;5073020;28;20903;-43
2022/11/30 13:59:56;;;;;;;42.10;17.57;;;;;;;;;;5070185;28;20838;-43
2022/11/30 14:02:32;;;;;;;37.83;18.43;;;;;;;;;;5070413;28;20449;-43
2022/11/30 14:05:19;;;;;;;35.80;18.90;;;;;;;;;;5067603;28;20463;-44
2022/11/30 14:08:00;;;;;;;32.90;15.87;;;;;;;;;;5072395;28;20471;-43
2022/11/30 14:10:25;;;;;;;33.90;16.50;;;;;;;;;;5073914;28;20447;-44
2022/11/30 14:13:10;;;;;;;34.87;18.70;;;;;;;;;;5066907;28;21004;-45
2022/11/30 14:15:42;;;;;;;35.23;17.73;;;;;;;;;;5053602;28;20410;-45
2022/11/30 14:18:08;;;;;;;28.90;16.17;;;;;;;;;;5052637;28;20419;-44
2022/11/30 14:20:52;;;;;;;34.43;17.13;;;;;;;;;;5054091;28;20410;-43
2022/11/30 14:23:21;;;;;;;32.17;16.97;;;;;;;;;;5053799;28;20419;-43
2022/11/30 14:25:49;;;;;;;31.37;16.33;;;;;;;;;;5053676;28;20477;-45
2022/11/30 14:28:17;;;;;;;33.10;16.93;;;;;;;;;;5052752;28;20438;-43
2022/11/30 14:30:44;;;;;;;26.50;15.37;;;;;;;;;;5052887;28;20414;-45